< < Back
Terminal Aerodrome Forecast


Current Version              Previous Versions:   1  2  3  4  5  6  7  8  9  

Terminal Aerodrome Forecast

742
FTUS44 KBMX 061120
TAFANB
TAF
KANB 061120Z 0612/0712 01004KT P6SM SKC
     FM061500 34012G20KT P6SM SCT070
     FM070300 32008KT P6SM SKC=



Latest METAR

239
SAUS70 KWBC 061800 RRH
MTRANB
METAR KANB 061753Z AUTO 33010G19KT 10SM BKN060 20/04 A2998 RMK AO2
SLP151 T02000039 10211 20089 58010


USA.gov is the U.S. government's official web portal to all federal, state and local government web resources and services.